Litchfield Park, Arizona
Current Conditions -  °F | °C
As of 10:47 AM on Saturday 25 Oct 2014 (Local Time) from KGEU Reporting Station
Scattered Clouds Scattered Clouds  
Wind Chill: 84°   Ceiling: Unl
Heat Index: 84°   Visibility: 20mi
Dew Point: 50°   Wind: 0mph
Humidity: 30%   Direction: NA
Pressure: 30.04"   Gusts: NA
Location:  33.49°N, 112.36°W
Report Text: KGEU 251747Z 00000KT 20SM FEW120 SCT200 29/10 A3004
Loading
Personal Weather Stations






























Interactive Weather Map
Tropical Storm Tracking
New forecast layout! Learn more

10-Day Weather Forecast

Advertisements
Track Severe Weather on mobile